| time (UTC) | temp F | wind direction | speed MPH | gust MPH | rain 1hr in | rain 24hr in | rain mn in | humidity % | barometer mb |
| 20260510234417 | 73 | 158 | 5.0 | 8.0 | 0.00 | 0.00 | 0.00 | 75 | 1025.6 |
| 20260510233443 | 72 | 203 | 5.0 | 7.0 | 0.00 | 0.00 | 0.00 | 76 | 1025.6 |
| 20260510232438 | 72 | 203 | 7.0 | 10.0 | 0.00 | 0.00 | 0.00 | 76 | 1025.6 |
| 20260510231418 | 72 | 203 | 6.0 | 11.0 | 0.00 | 0.00 | 0.00 | 77 | 1025.6 |
| 20260510230417 | 71 | 203 | 5.0 | 8.0 | 0.00 | 0.00 | 0.00 | 78 | 1025.6 |
| 20260510225423 | 71 | 158 | 8.0 | 11.0 | 0.00 | 0.00 | 0.00 | 78 | 1025.6 |
| 20260510224418 | 70 | 180 | 5.0 | 9.0 | 0.00 | 0.00 | 0.00 | 80 | 1025.5 |
| 20260510223418 | 70 | 180 | 5.0 | 8.0 | 0.00 | 0.00 | 0.00 | 80 | 1025.4 |
| 20260510222417 | 70 | 203 | 9.0 | 12.0 | 0.00 | 0.00 | 0.00 | 79 | 1025.4 |
| 20260510221418 | 69 | 203 | 4.0 | 12.0 | 0.00 | 0.00 | 0.00 | 81 | 1025.3 |
| 20260510220437 | 69 | 158 | 5.0 | 8.0 | 0.00 | 0.00 | 0.00 | 81 | 1025.3 |
| 20260510215417 | 69 | 158 | 3.0 | 4.0 | 0.00 | 0.00 | 0.00 | 81 | 1025.3 |
| 20260510214417 | 68 | 158 | 3.0 | 6.0 | 0.00 | 0.00 | 0.00 | 81 | 1025.2 |
| 20260510213418 | 68 | 225 | 4.0 | 7.0 | 0.00 | 0.00 | 0.00 | 81 | 1025.0 |
| 20260510212417 | 68 | 203 | 5.0 | 8.0 | 0.00 | 0.00 | 0.00 | 82 | 1025.0 |
| 20260510211418 | 67 | 203 | 2.0 | 3.0 | 0.00 | 0.00 | 0.00 | 83 | 1024.8 |
| 20260510210417 | 66 | 180 | 2.0 | 3.0 | 0.00 | 0.00 | 0.00 | 84 | 1024.7 |
| 20260510205417 | 66 | 203 | 1.0 | 2.0 | 0.00 | 0.00 | 0.00 | 85 | 1024.6 |
| 20260510204422 | 65 | 225 | 2.0 | 3.0 | 0.00 | 0.00 | 0.00 | 85 | 1024.6 |
| 20260510203422 | 65 | 203 | 2.0 | 3.0 | 0.00 | 0.00 | 0.00 | 85 | 1024.5 |
| 20260510202417 | 65 | 203 | 1.0 | 2.0 | 0.00 | 0.00 | 0.00 | 84 | 1024.4 |
| 20260510201418 | 65 | 203 | 1.0 | 3.0 | 0.00 | 0.00 | 0.00 | 84 | 1024.2 |
| 20260510200417 | 65 | 203 | 1.0 | 2.0 | 0.00 | 0.00 | 0.00 | 84 | 1024.1 |
| 20260510195417 | 65 | 203 | 1.0 | 2.0 | 0.00 | 0.00 | 0.00 | 84 | 1024.0 |
| 20260510194417 | 65 | 203 | 3.0 | 4.0 | 0.00 | 0.00 | 0.00 | 84 | 1023.9 |
| 20260510193419 | 65 | 180 | 1.0 | 2.0 | 0.00 | 0.00 | 0.00 | 84 | 1023.7 |
| 20260510192417 | 65 | 203 | 1.0 | 2.0 | 0.00 | 0.00 | 0.00 | 84 | 1023.8 |
| 20260510191417 | 65 | 203 | 1.0 | 1.0 | 0.00 | 0.00 | 0.00 | 84 | 1023.6 |
| 20260510190417 | 65 | 203 | 1.0 | 2.0 | 0.00 | 0.00 | 0.00 | 84 | 1023.5 |
| 20260510185422 | 65 | 203 | 2.0 | 3.0 | 0.00 | 0.00 | 0.00 | 85 | 1023.5 |
| 20260510184417 | 65 | 225 | 3.0 | 4.0 | 0.00 | 0.00 | 0.00 | 85 | 1023.4 |
| 20260510183418 | 65 | 203 | 3.0 | 5.0 | 0.00 | 0.00 | 0.00 | 86 | 1023.4 |
| 20260510182436 | 64 | 180 | 2.0 | 3.0 | 0.00 | 0.00 | 0.00 | 85 | 1023.3 |
| 20260510181417 | 65 | 180 | 1.0 | 2.0 | 0.00 | 0.00 | 0.00 | 85 | 1023.2 |
| 20260510180558 | 65 | 180 | 1.0 | 2.0 | 0.00 | 0.00 | 0.00 | 85 | 1023.2 |
| 20260510175422 | 65 | 0.0 | 1.0 | 0.00 | 0.00 | 0.00 | 85 | 1023.2 | |
| 20260510174416 | 65 | 180 | 1.0 | 2.0 | 0.00 | 0.00 | 0.00 | 85 | 1023.2 |
| 20260510173417 | 66 | 0.0 | 1.0 | 0.00 | 0.00 | 0.00 | 84 | 1023.3 | |
| 20260510172508 | 66 | 180 | 1.0 | 2.0 | 0.00 | 0.00 | 0.00 | 84 | 1023.5 |
| 20260510171417 | 66 | 180 | 1.0 | 2.0 | 0.00 | 0.00 | 0.00 | 85 | 1023.6 |
| 20260510170417 | 65 | 180 | 1.0 | 1.0 | 0.00 | 0.00 | 0.00 | 85 | 1023.6 |
| 20260510165417 | 65 | 180 | 1.0 | 1.0 | 0.00 | 0.00 | 0.00 | 85 | 1023.6 |
| 20260510164417 | 66 | 180 | 1.0 | 2.0 | 0.00 | 0.00 | 0.00 | 84 | 1023.6 |
| 20260510163437 | 66 | 180 | 2.0 | 2.0 | 0.00 | 0.00 | 0.00 | 84 | 1023.7 |
| 20260510162417 | 66 | 180 | 1.0 | 1.0 | 0.00 | 0.00 | 0.00 | 84 | 1023.6 |
| 20260510161422 | 66 | 180 | 1.0 | 2.0 | 0.00 | 0.00 | 0.00 | 84 | 1023.7 |
| 20260510160417 | 66 | 180 | 2.0 | 3.0 | 0.00 | 0.00 | 0.00 | 84 | 1023.8 |
| 20260510155417 | 66 | 203 | 1.0 | 3.0 | 0.00 | 0.00 | 0.00 | 84 | 1023.9 |
| 20260510154419 | 66 | 180 | 1.0 | 2.0 | 0.00 | 0.00 | 0.00 | 84 | 1024.0 |
| 20260510153419 | 66 | 180 | 2.0 | 4.0 | 0.00 | 0.00 | 0.00 | 84 | 1024.1 |
| 20260510152439 | 66 | 180 | 1.0 | 2.0 | 0.00 | 0.00 | 0.00 | 84 | 1024.1 |
| 20260510151422 | 66 | 180 | 1.0 | 2.0 | 0.00 | 0.00 | 0.00 | 85 | 1024.2 |
| 20260510150418 | 65 | 180 | 2.0 | 3.0 | 0.00 | 0.00 | 0.00 | 86 | 1024.2 |
| 20260510145424 | 65 | 180 | 1.0 | 2.0 | 0.00 | 0.00 | 0.00 | 87 | 1024.3 |
| 20260510144428 | 64 | 203 | 1.0 | 2.0 | 0.00 | 0.00 | 0.00 | 88 | 1024.4 |
| 20260510143419 | 64 | 203 | 1.0 | 2.0 | 0.00 | 0.00 | 0.00 | 88 | 1024.3 |
| 20260510142419 | 63 | 0.0 | 0.0 | 0.00 | 0.00 | 0.00 | 87 | 1024.3 | |
| 20260510141419 | 64 | 0.0 | 0.0 | 0.00 | 0.00 | 0.00 | 87 | 1024.4 | |
| 20260510140418 | 64 | 207 | 1.0 | 0.0 | 0.00 | 0.00 | 0.00 | 86 | 1024.4 |
| 20260510135422 | 65 | 0.0 | 0.0 | 0.00 | 0.00 | 0.00 | 86 | 1024.4 | |
| 20260510134458 | 65 | 0.0 | 0.0 | 0.00 | 0.00 | 0.00 | 85 | 1024.4 | |
| 20260510133430 | 65 | 0.0 | 1.0 | 0.00 | 0.00 | 0.00 | 85 | 1024.4 | |
| 20260510132417 | 65 | 203 | 1.0 | 1.0 | 0.00 | 0.00 | 0.00 | 85 | 1024.4 |
| 20260510131448 | 66 | 0.0 | 1.0 | 0.00 | 0.00 | 0.00 | 84 | 1024.4 | |
| 20260510130430 | 66 | 203 | 1.0 | 2.0 | 0.00 | 0.00 | 0.00 | 84 | 1024.5 |
| 20260510125420 | 66 | 203 | 1.0 | 3.0 | 0.00 | 0.00 | 0.00 | 83 | 1024.6 |
| 20260510124430 | 66 | 203 | 2.0 | 2.0 | 0.00 | 0.00 | 0.00 | 83 | 1024.8 |
| 20260510123433 | 67 | 203 | 2.0 | 3.0 | 0.00 | 0.00 | 0.00 | 83 | 1025.0 |
| 20260510122419 | 67 | 203 | 3.0 | 4.0 | 0.00 | 0.00 | 0.00 | 82 | 1025.1 |
| 20260510121417 | 67 | 135 | 1.0 | 2.0 | 0.00 | 0.00 | 0.00 | 80 | 1025.3 |
| 20260510120427 | 67 | 135 | 1.0 | 2.0 | 0.00 | 0.00 | 0.00 | 80 | 1025.3 |
| 20260510115448 | 67 | 135 | 1.0 | 2.0 | 0.00 | 0.00 | 0.00 | 79 | 1025.5 |
| 20260510114429 | 67 | 135 | 1.0 | 2.0 | 0.00 | 0.00 | 0.00 | 80 | 1025.6 |
| 20260510113439 | 67 | 180 | 1.0 | 2.0 | 0.00 | 0.00 | 0.00 | 80 | 1025.4 |
| 20260510112429 | 67 | 158 | 2.0 | 3.0 | 0.00 | 0.00 | 0.00 | 79 | 1025.2 |
| 20260510111431 | 67 | 203 | 6.0 | 10.0 | 0.00 | 0.00 | 0.00 | 78 | 1025.1 |
| 20260510110428 | 67 | 180 | 2.0 | 3.0 | 0.00 | 0.00 | 0.00 | 77 | 1025.1 |
| 20260510105417 | 67 | 158 | 3.0 | 5.0 | 0.00 | 0.00 | 0.00 | 77 | 1025.1 |
| 20260510104417 | 67 | 225 | 1.0 | 1.0 | 0.00 | 0.00 | 0.00 | 77 | 1025.1 |
| 20260510103443 | 67 | 225 | 1.0 | 2.0 | 0.00 | 0.00 | 0.00 | 77 | 1025.1 |
| 20260510102419 | 67 | 0.0 | 1.0 | 0.00 | 0.00 | 0.00 | 76 | 1025.0 | |
| 20260510101437 | 67 | 0.0 | 1.0 | 0.00 | 0.00 | 0.00 | 76 | 1024.8 | |
| 20260510100438 | 67 | 225 | 2.0 | 3.0 | 0.00 | 0.00 | 0.00 | 76 | 1024.6 |
| 20260510095417 | 67 | 225 | 2.0 | 3.0 | 0.00 | 0.00 | 0.00 | 76 | 1024.1 |
| 20260510094422 | 68 | 225 | 1.0 | 3.0 | 0.00 | 0.00 | 0.00 | 76 | 1024.4 |
| 20260510093459 | 68 | 225 | 2.0 | 3.0 | 0.00 | 0.00 | 0.00 | 76 | 1024.4 |
| 20260510092422 | 68 | 225 | 2.0 | 3.0 | 0.00 | 0.00 | 0.00 | 77 | 1024.5 |
| 20260510091418 | 68 | 0.0 | 1.0 | 0.00 | 0.00 | 0.00 | 78 | 1024.5 | |
| 20260510090417 | 68 | 225 | 1.0 | 1.0 | 0.00 | 0.00 | 0.00 | 78 | 1024.5 |
| 20260510085437 | 69 | 0.0 | 0.0 | 0.00 | 0.00 | 0.00 | 78 | 1024.6 | |
| 20260510084416 | 69 | 0.0 | 0.0 | 0.00 | 0.00 | 0.00 | 78 | 1024.3 | |
| 20260510083437 | 68 | 0.0 | 1.0 | 0.00 | 0.00 | 0.00 | 78 | 1024.2 | |
| 20260510082417 | 68 | 0.0 | 1.0 | 0.00 | 0.00 | 0.00 | 78 | 1024.1 | |
| 20260510081417 | 68 | 225 | 1.0 | 2.0 | 0.00 | 0.00 | 0.00 | 78 | 1023.9 |
| 20260510080437 | 69 | 225 | 1.0 | 1.0 | 0.00 | 0.00 | 0.00 | 77 | 1023.9 |
| 20260510075422 | 69 | 225 | 1.0 | 1.0 | 0.00 | 0.00 | 0.00 | 77 | 1023.7 |
| 20260510074422 | 69 | 180 | 3.0 | 4.0 | 0.00 | 0.00 | 0.00 | 77 | 1023.6 |
| 20260510073417 | 69 | 180 | 1.0 | 2.0 | 0.00 | 0.00 | 0.00 | 76 | 1023.4 |
| 20260510072416 | 70 | 180 | 2.0 | 2.0 | 0.00 | 0.00 | 0.00 | 76 | 1023.4 |
| 20260510071417 | 70 | 180 | 2.0 | 3.0 | 0.00 | 0.00 | 0.00 | 75 | 1023.5 |
| 20260510070427 | 70 | 180 | 2.0 | 3.0 | 0.00 | 0.00 | 0.00 | 76 | 1023.6 |
| 20260510065430 | 70 | 180 | 3.0 | 4.0 | 0.00 | 0.00 | 0.00 | 75 | 1023.4 |
| 20260510064429 | 70 | 180 | 2.0 | 3.0 | 0.00 | 0.00 | 0.00 | 76 | 1023.3 |
| 20260510063449 | 70 | 180 | 2.0 | 4.0 | 0.00 | 0.00 | 0.00 | 76 | 1023.2 |
| 20260510062430 | 70 | 158 | 1.0 | 1.0 | 0.00 | 0.00 | 0.00 | 75 | 1023.1 |
| 20260510061450 | 70 | 158 | 3.0 | 4.0 | 0.00 | 0.00 | 0.00 | 75 | 1022.7 |
| 20260510060432 | 70 | 180 | 1.0 | 2.0 | 0.00 | 0.00 | 0.00 | 75 | 1022.7 |
| 20260510055431 | 70 | 158 | 2.0 | 3.0 | 0.00 | 0.00 | 0.00 | 75 | 1023.0 |
| 20260510054430 | 71 | 180 | 4.0 | 5.0 | 0.00 | 0.00 | 0.00 | 75 | 1022.9 |
| 20260510053430 | 71 | 225 | 4.0 | 5.0 | 0.00 | 0.00 | 0.00 | 75 | 1022.7 |
| 20260510052431 | 71 | 203 | 3.0 | 7.0 | 0.00 | 0.00 | 0.00 | 74 | 1022.7 |
| 20260510051432 | 71 | 158 | 3.0 | 5.0 | 0.00 | 0.00 | 0.00 | 75 | 1022.8 |
| 20260510050429 | 71 | 203 | 7.0 | 10.0 | 0.00 | 0.00 | 0.00 | 75 | 1022.9 |
| 20260510045429 | 72 | 203 | 4.0 | 8.0 | 0.00 | 0.00 | 0.00 | 75 | 1023.1 |
| 20260510044450 | 72 | 203 | 6.0 | 9.0 | 0.00 | 0.00 | 0.00 | 74 | 1023.1 |
| 20260510043450 | 73 | 158 | 5.0 | 7.0 | 0.00 | 0.00 | 0.00 | 73 | 1022.9 |
| 20260510042429 | 73 | 180 | 3.0 | 5.0 | 0.00 | 0.00 | 0.00 | 73 | 1022.8 |
| 20260510041431 | 74 | 180 | 5.0 | 8.0 | 0.00 | 0.00 | 0.00 | 72 | 1022.6 |
| 20260510040430 | 74 | 158 | 6.0 | 9.0 | 0.00 | 0.00 | 0.00 | 71 | 1022.5 |
| 20260510035430 | 74 | 180 | 6.0 | 9.0 | 0.00 | 0.00 | 0.00 | 70 | 1022.3 |
| 20260510034429 | 74 | 180 | 6.0 | 10.0 | 0.00 | 0.00 | 0.00 | 70 | 1022.4 |
| 20260510033430 | 75 | 135 | 6.0 | 12.0 | 0.00 | 0.00 | 0.00 | 69 | 1022.4 |
| 20260510032428 | 75 | 180 | 4.0 | 8.0 | 0.00 | 0.00 | 0.00 | 69 | 1022.5 |
| 20260510031429 | 75 | 180 | 5.0 | 10.0 | 0.00 | 0.00 | 0.00 | 69 | 1022.5 |
| 20260510030429 | 76 | 158 | 4.0 | 6.0 | 0.00 | 0.00 | 0.00 | 68 | 1022.5 |
| 20260510025450 | 76 | 158 | 2.0 | 6.0 | 0.00 | 0.00 | 0.00 | 67 | 1022.7 |
| 20260510024429 | 77 | 90 | 2.0 | 3.0 | 0.00 | 0.00 | 0.00 | 66 | 1022.6 |
| 20260510023450 | 76 | 113 | 2.0 | 3.0 | 0.00 | 0.00 | 0.00 | 67 | 1022.7 |
| 20260510022428 | 76 | 113 | 4.0 | 5.0 | 0.00 | 0.00 | 0.00 | 66 | 1022.9 |
| 20260510021434 | 76 | 180 | 7.0 | 9.0 | 0.00 | 0.00 | 0.00 | 66 | 1023.0 |
| 20260510020429 | 76 | 113 | 6.0 | 10.0 | 0.00 | 0.00 | 0.00 | 66 | 1023.2 |
| 20260510015435 | 75 | 135 | 2.0 | 4.0 | 0.00 | 0.00 | 0.00 | 68 | 1023.2 |
| 20260510014429 | 74 | 113 | 4.0 | 9.0 | 0.00 | 0.00 | 0.00 | 68 | 1023.4 |
| 20260510013429 | 75 | 180 | 7.0 | 11.0 | 0.00 | 0.00 | 0.00 | 68 | 1023.6 |
| 20260510012430 | 75 | 180 | 5.0 | 8.0 | 0.00 | 0.00 | 0.00 | 69 | 1023.7 |
| 20260510011432 | 75 | 113 | 7.0 | 12.0 | 0.00 | 0.00 | 0.00 | 70 | 1023.6 |
| 20260510010429 | 74 | 180 | 7.0 | 12.0 | 0.00 | 0.00 | 0.00 | 72 | 1023.9 |
| 20260510005449 | 73 | 158 | 4.0 | 6.0 | 0.00 | 0.00 | 0.00 | 73 | 1023.9 |
| 20260510004430 | 73 | 180 | 2.0 | 3.0 | 0.00 | 0.00 | 0.00 | 74 | 1024.1 |
| 20260510003430 | 73 | 180 | 6.0 | 9.0 | 0.00 | 0.00 | 0.00 | 73 | 1024.1 |
| 20260510002431 | 74 | 180 | 3.0 | 4.0 | 0.00 | 0.00 | 0.00 | 72 | 1024.1 |
| 20260510001429 | 74 | 203 | 5.0 | 8.0 | 0.00 | 0.00 | 0.00 | 71 | 1024.1 |
| 20260510000449 | 73 | 180 | 4.0 | 7.0 | 0.00 | 0.00 | 0.00 | 72 | 1024.2 |
| 20260509235429 | 73 | 225 | 7.0 | 10.0 | 0.00 | 0.00 | 0.00 | 72 | 1024.1 |